DTTZ

Tozeur Nefta International Airport

Tozeur, Tunisia
METAR DTTZ 242000Z 11012KT 6000 SCT030 BKN033 15/10 Q1002 NOSIG
Observed Flight Rules
Feb-24 @ 20:00 UTC (11 minutes ago) Marginal Visual Flight Rules
Wind Visibility Clouds
110° at 12 knots 6,003 meters
  • Scattered at 3,000' AGL
  • Broken at 3,300' AGL
Temperatures Readings
Current 15°C / 59°F
Dewpoint 10°C / 50°F
Humidity 72%
Altimeter 29.59" Hg
Pressure 1002 hPa
Elevation 93
METAR DTTZ 242000Z 11012KT 6000 SCT030 BKN033 15/10 Q1002 NOSIG
Observed Flight Rules
Feb-24 @ 20:00 UTC
(11 minutes ago)
MVFR
Wind Visibility
110° at 12 knots 6,003 meters
Clouds
  • Scattered at 3,000' AGL
  • Broken at 3,300' AGL
Temperature Dewpoint
15°C / 59°F 10°C / 50°F
Humidity Altimeter Pressure
72% 29.59" Hg 1002 hPa